createdAt,value
2023-05-19T00:00:37.424Z,6.78
2023-05-19T00:02:41.229Z,5.95
2023-05-19T00:04:50.032Z,10.23
2023-05-19T00:06:54.663Z,8.05
2023-05-19T00:08:59.014Z,10.65
2023-05-19T00:13:04.895Z,7.40
2023-05-19T00:15:09.538Z,8.15
2023-05-19T00:17:12.576Z,6.55
2023-05-19T00:19:17.193Z,12.65
2023-05-19T00:21:22.683Z,10.82
2023-05-19T00:23:25.259Z,12.73
2023-05-19T00:25:31.903Z,11.55
2023-05-19T00:27:34.446Z,8.48
2023-05-19T00:29:36.900Z,8.68
2023-05-19T00:31:39.396Z,7.05
2023-05-19T00:33:42.079Z,6.32
2023-05-19T00:35:44.627Z,9.63
2023-05-19T00:37:49.832Z,7.40
2023-05-19T00:39:53.728Z,7.78
2023-05-19T00:41:56.469Z,7.43
2023-05-19T00:43:59.025Z,8.80
2023-05-19T00:46:04.099Z,6.95
2023-05-19T00:48:06.661Z,9.13
2023-05-19T00:50:10.329Z,10.27
2023-05-19T00:52:12.874Z,7.22
2023-05-19T00:54:21.574Z,6.43
2023-05-19T00:56:24.217Z,13.55
2023-05-19T00:58:30.770Z,8.98
2023-05-19T01:00:34.346Z,10.48
2023-05-19T01:02:40.208Z,8.45
2023-05-19T01:04:52.288Z,7.20
2023-05-19T01:06:55.222Z,8.20
2023-05-19T01:08:58.354Z,10.77
2023-05-19T01:11:03.864Z,8.13
2023-05-19T01:13:07.157Z,7.88
2023-05-19T01:15:11.165Z,8.38
2023-05-19T01:17:25.018Z,8.30
2023-05-19T01:19:46.863Z,9.05
2023-05-19T01:22:13.386Z,13.75
2023-05-19T01:24:48.285Z,13.05
2023-05-19T01:27:21.902Z,10.70
2023-05-19T01:29:35.764Z,8.95
2023-05-19T01:31:43.557Z,14.90
2023-05-19T01:33:47.968Z,12.20
2023-05-19T01:35:51.845Z,10.82
2023-05-19T01:37:57.266Z,7.68
2023-05-19T01:40:01.594Z,9.00
2023-05-19T01:42:04.932Z,10.00
2023-05-19T01:44:08.145Z,9.60
2023-05-19T01:46:11.044Z,8.57
2023-05-19T01:48:16.562Z,7.47
2023-05-19T01:50:21.554Z,8.52
2023-05-19T01:52:25.435Z,7.35
2023-05-19T01:54:28.112Z,8.02
2023-05-19T01:56:40.251Z,13.27
2023-05-19T01:58:46.575Z,12.23
2023-05-19T02:01:02.292Z,6.20
2023-05-19T02:03:15.022Z,11.15
2023-05-19T02:05:29.603Z,8.05
2023-05-19T02:07:44.551Z,6.43
2023-05-19T02:09:53.202Z,7.33
2023-05-19T02:12:01.242Z,7.85
2023-05-19T02:14:10.317Z,8.93
2023-05-19T02:16:13.910Z,6.88
2023-05-19T02:18:18.300Z,9.57
2023-05-19T02:20:28.337Z,6.50
2023-05-19T02:22:31.113Z,8.93
2023-05-19T02:24:33.611Z,9.27
2023-05-19T02:26:36.135Z,6.55
2023-05-19T02:28:40.039Z,6.78
2023-05-19T02:30:42.544Z,6.90
2023-05-19T02:32:47.045Z,12.30
2023-05-19T02:34:49.880Z,8.55
2023-05-19T02:36:56.629Z,8.45
2023-05-19T02:39:01.108Z,6.57
2023-05-19T02:41:04.368Z,10.48
2023-05-19T02:43:07.011Z,8.25
2023-05-19T02:45:10.782Z,9.52
2023-05-19T02:47:16.384Z,6.82
2023-05-19T02:49:20.017Z,6.85
2023-05-19T02:51:22.640Z,7.05
2023-05-19T02:53:28.004Z,12.02
2023-05-19T02:55:30.500Z,6.50
2023-05-19T02:57:35.042Z,6.72
2023-05-19T02:59:37.762Z,6.70
2023-05-19T03:01:40.852Z,7.70
2023-05-19T03:03:43.441Z,6.93
2023-05-19T03:05:46.202Z,6.32
2023-05-19T03:07:48.742Z,6.68
2023-05-19T03:09:53.974Z,6.53
2023-05-19T03:11:56.773Z,6.05
2023-05-19T03:13:59.432Z,7.43
2023-05-19T03:16:03.471Z,7.80
2023-05-19T03:18:06.960Z,7.57
2023-05-19T03:20:11.141Z,5.87
2023-05-19T03:24:16.536Z,6.90
2023-05-19T03:26:23.270Z,10.07
2023-05-19T03:28:27.616Z,7.13
2023-05-19T03:30:30.378Z,6.28
2023-05-19T03:32:53.518Z,12.13
2023-05-19T03:34:56.599Z,5.93
2023-05-19T03:36:59.660Z,6.05
2023-05-19T03:39:02.288Z,7.35
2023-05-19T03:43:16.337Z,10.02
2023-05-19T03:45:27.904Z,8.50
2023-05-19T03:47:32.045Z,8.57
2023-05-19T03:49:43.057Z,6.97
2023-05-19T03:51:46.417Z,8.05
2023-05-19T03:54:02.167Z,8.95
2023-05-19T03:56:05.662Z,8.50
2023-05-19T03:58:08.231Z,7.15
2023-05-19T04:00:16.834Z,8.15
2023-05-19T04:02:19.506Z,7.90
2023-05-19T04:04:24.187Z,7.03
2023-05-19T04:06:26.826Z,10.52
2023-05-19T04:08:29.935Z,7.32
2023-05-19T04:10:32.781Z,7.85
2023-05-19T04:12:35.810Z,11.00
2023-05-19T04:14:38.427Z,8.27
2023-05-19T04:16:43.703Z,10.23
2023-05-19T04:18:46.610Z,8.10
2023-05-19T04:20:49.281Z,14.85
2023-05-19T04:22:51.765Z,9.18
2023-05-19T04:24:55.289Z,8.60
2023-05-19T04:27:02.769Z,8.93
2023-05-19T04:29:05.553Z,8.60
2023-05-19T04:31:12.934Z,10.98
2023-05-19T04:33:20.232Z,8.73
2023-05-19T04:35:23.003Z,9.07
2023-05-19T04:37:26.539Z,9.48
2023-05-19T04:39:29.691Z,11.95
2023-05-19T04:41:34.211Z,13.48
2023-05-19T04:43:44.663Z,16.67
2023-05-19T04:45:51.603Z,15.05
2023-05-19T04:47:58.326Z,15.38
2023-05-19T04:50:04.391Z,14.48
2023-05-19T04:52:07.994Z,15.10
2023-05-19T04:54:10.938Z,12.68
2023-05-19T04:56:15.563Z,15.75
2023-05-19T04:58:20.124Z,17.30
2023-05-19T05:00:23.457Z,16.50
2023-05-19T05:02:34.212Z,14.10
2023-05-19T05:04:37.733Z,15.67
2023-05-19T05:06:48.106Z,12.95
2023-05-19T05:08:51.475Z,14.98
2023-05-19T05:10:55.144Z,14.63
2023-05-19T05:12:58.570Z,14.40
2023-05-19T05:15:02.036Z,14.18
2023-05-19T05:17:05.659Z,17.25
2023-05-19T05:19:09.098Z,14.80
2023-05-19T05:21:12.896Z,17.38
2023-05-19T05:23:19.815Z,16.55
2023-05-19T05:25:25.279Z,17.27
2023-05-19T05:27:28.332Z,18.63
2023-05-19T05:29:31.436Z,19.90
2023-05-19T05:31:37.293Z,18.90
2023-05-19T05:33:40.490Z,19.08
2023-05-19T05:35:44.520Z,16.83
2023-05-19T05:37:49.809Z,20.52
2023-05-19T05:39:55.179Z,21.20
2023-05-19T05:41:58.622Z,20.63
2023-05-19T05:44:01.432Z,23.13
2023-05-19T05:46:05.361Z,25.52
2023-05-19T05:48:09.072Z,22.20
2023-05-19T05:50:14.099Z,21.17
2023-05-19T05:52:23.025Z,24.73
2023-05-19T05:54:26.475Z,26.15
2023-05-19T05:56:33.990Z,21.77
2023-05-19T05:58:37.979Z,20.52
2023-05-19T06:00:43.665Z,26.92
2023-05-19T06:02:50.979Z,27.27
2023-05-19T06:04:57.290Z,27.90
2023-05-19T06:07:01.984Z,21.77
2023-05-19T06:09:11.405Z,27.75
2023-05-19T06:11:13.916Z,20.30
2023-05-19T06:13:23.951Z,18.30
2023-05-19T06:15:29.299Z,18.90
2023-05-19T06:17:39.259Z,16.40
2023-05-19T06:19:42.611Z,17.55
2023-05-19T06:21:45.829Z,17.55
2023-05-19T06:23:49.015Z,13.40
2023-05-19T06:25:56.338Z,23.65
2023-05-19T06:28:01.605Z,14.68
2023-05-19T06:30:10.589Z,14.73
2023-05-19T06:32:29.868Z,7.00
2023-05-19T06:34:33.857Z,9.30
2023-05-19T06:36:41.665Z,8.75
2023-05-19T06:38:45.605Z,9.75
2023-05-19T06:40:48.570Z,7.18
2023-05-19T06:42:51.989Z,8.77
2023-05-19T06:45:11.440Z,12.65
2023-05-19T06:47:19.759Z,10.50
2023-05-19T06:49:22.449Z,9.13
2023-05-19T06:51:25.213Z,6.22
2023-05-19T06:53:31.833Z,7.78
2023-05-19T06:55:37.201Z,7.30
2023-05-19T06:57:51.624Z,7.13
2023-05-19T06:59:55.573Z,12.68
2023-05-19T07:02:05.833Z,13.07
2023-05-19T07:04:12.670Z,6.75
2023-05-19T07:06:16.386Z,10.60
2023-05-19T07:08:20.803Z,12.30
2023-05-19T07:10:24.695Z,8.18
2023-05-19T07:12:37.202Z,7.70
2023-05-19T07:14:41.339Z,8.73
2023-05-19T07:16:44.061Z,7.90
2023-05-19T07:18:49.230Z,10.98
2023-05-19T07:20:57.614Z,31.92
2023-05-19T07:23:00.343Z,25.20
2023-05-19T07:25:03.102Z,29.25
2023-05-19T07:27:06.454Z,11.38
2023-05-19T07:29:09.327Z,6.38
2023-05-19T07:31:11.862Z,14.75
2023-05-19T07:33:19.345Z,8.45
2023-05-19T07:35:25.107Z,17.33
2023-05-19T07:37:27.782Z,11.50
2023-05-19T07:39:32.547Z,31.40
2023-05-19T07:41:36.392Z,69.40
2023-05-19T07:43:41.092Z,21.70
2023-05-19T07:45:44.193Z,31.27
2023-05-19T07:47:46.846Z,40.55
2023-05-19T07:49:51.682Z,55.67
2023-05-19T07:51:57.945Z,64.93
2023-05-19T07:54:03.532Z,78.00
2023-05-19T07:56:06.695Z,66.60
2023-05-19T07:58:11.315Z,77.53
2023-05-19T08:00:15.189Z,82.05
2023-05-19T08:02:17.835Z,50.78
2023-05-19T08:04:28.065Z,69.63
2023-05-19T08:06:35.565Z,93.32
2023-05-19T08:08:42.366Z,80.25
2023-05-19T08:10:45.273Z,50.97
2023-05-19T08:12:48.618Z,51.33
2023-05-19T08:14:51.392Z,69.60
2023-05-19T08:16:53.840Z,83.55
2023-05-19T08:18:56.746Z,65.70
2023-05-19T08:20:59.479Z,60.55
2023-05-19T08:23:02.154Z,21.95
2023-05-19T08:25:07.743Z,69.93
2023-05-19T08:27:10.340Z,51.25
2023-05-19T08:29:12.953Z,61.95
2023-05-19T08:31:15.552Z,47.63
2023-05-19T08:33:21.130Z,36.65
2023-05-19T08:35:23.950Z,37.15
2023-05-19T08:37:29.822Z,33.85
2023-05-19T08:39:34.490Z,40.72
2023-05-19T08:41:39.852Z,22.20
2023-05-19T08:43:44.143Z,26.27
2023-05-19T08:45:48.496Z,21.65
2023-05-19T08:47:52.318Z,31.05
2023-05-19T08:50:03.860Z,26.10
2023-05-19T08:52:15.468Z,20.23
2023-05-19T08:54:18.823Z,23.10
2023-05-19T08:56:23.338Z,21.48
2023-05-19T08:58:29.337Z,36.22
2023-05-19T09:00:33.331Z,26.00
2023-05-19T09:02:50.510Z,14.27
2023-05-19T09:05:03.984Z,18.70
2023-05-19T09:07:06.806Z,15.48
2023-05-19T09:09:09.511Z,18.90
2023-05-19T09:11:12.445Z,15.65
2023-05-19T09:13:17.424Z,18.05
2023-05-19T09:15:27.624Z,20.75
2023-05-19T09:17:30.146Z,27.75
2023-05-19T09:19:33.067Z,26.90
2023-05-19T09:21:36.595Z,33.03
2023-05-19T09:23:39.280Z,19.33
2023-05-19T09:25:48.711Z,20.73
2023-05-19T09:27:51.506Z,26.05
2023-05-19T09:29:54.097Z,25.55
2023-05-19T09:32:04.970Z,12.63
2023-05-19T09:34:13.238Z,25.38
2023-05-19T09:36:15.920Z,27.83
2023-05-19T09:38:19.391Z,22.52
2023-05-19T09:40:22.009Z,23.85
2023-05-19T09:42:27.619Z,31.90
2023-05-19T09:44:35.246Z,29.05
2023-05-19T09:46:38.177Z,19.88
2023-05-19T09:48:44.181Z,15.00
2023-05-19T09:50:48.689Z,19.25
2023-05-19T09:52:53.296Z,9.77
2023-05-19T09:54:57.304Z,12.38
2023-05-19T09:57:05.250Z,18.67
2023-05-19T09:59:09.750Z,21.67
2023-05-19T10:01:12.715Z,33.58
2023-05-19T10:03:16.665Z,54.63
2023-05-19T10:07:25.325Z,25.33
2023-05-19T10:09:29.157Z,16.42
2023-05-19T10:11:32.609Z,9.23
2023-05-19T10:13:42.189Z,10.95
2023-05-19T10:15:58.263Z,26.95
2023-05-19T10:18:04.143Z,24.15
2023-05-19T10:20:09.813Z,12.45
2023-05-19T10:22:17.229Z,9.32
2023-05-19T10:24:21.547Z,8.43
2023-05-19T10:26:26.358Z,14.43
2023-05-19T10:28:35.185Z,19.38
2023-05-19T10:30:41.467Z,10.38
2023-05-19T10:32:46.986Z,9.25
2023-05-19T10:35:12.594Z,12.10
2023-05-19T10:37:29.745Z,12.85
2023-05-19T10:39:38.238Z,20.45
2023-05-19T10:41:47.192Z,15.65
2023-05-19T10:43:57.984Z,16.73
2023-05-19T10:46:01.612Z,7.25
2023-05-19T10:48:04.723Z,11.40
2023-05-19T10:50:08.838Z,20.10
2023-05-19T10:52:33.194Z,20.75
2023-05-19T10:54:43.689Z,25.65
2023-05-19T10:56:47.746Z,18.67
2023-05-19T11:01:01.210Z,21.15
2023-05-19T11:03:14.218Z,18.05
2023-05-19T11:05:19.432Z,18.90
2023-05-19T11:07:24.990Z,14.00
2023-05-19T11:09:37.753Z,19.20
2023-05-19T11:11:49.815Z,19.90
2023-05-19T11:13:55.748Z,16.65
2023-05-19T11:18:05.830Z,7.82
2023-05-19T11:20:13.123Z,18.38
2023-05-19T11:22:15.990Z,14.20
2023-05-19T11:24:36.615Z,17.17
2023-05-19T11:26:43.445Z,9.40
2023-05-19T11:28:48.411Z,13.57
2023-05-19T11:30:52.485Z,11.52
2023-05-19T11:32:55.852Z,10.48
2023-05-19T11:34:58.688Z,9.82
2023-05-19T11:37:01.944Z,13.35
2023-05-19T11:39:06.143Z,14.93
2023-05-19T11:41:11.335Z,12.75
2023-05-19T11:43:14.182Z,8.25
2023-05-19T11:45:16.800Z,11.27
2023-05-19T11:47:20.770Z,13.38
2023-05-19T11:49:23.436Z,9.70
2023-05-19T11:51:26.320Z,9.90
2023-05-19T11:53:33.411Z,9.32
2023-05-19T11:55:43.830Z,11.48
2023-05-19T12:00:09.676Z,13.73
2023-05-19T12:02:19.172Z,10.65
2023-05-19T12:04:21.681Z,9.15
2023-05-19T12:06:26.425Z,11.73
2023-05-19T12:08:30.196Z,12.10
2023-05-19T12:10:34.502Z,9.15
2023-05-19T12:12:37.958Z,12.10
2023-05-19T12:14:43.619Z,11.73
2023-05-19T12:16:46.200Z,8.70
2023-05-19T12:18:48.887Z,11.68
2023-05-19T12:20:51.640Z,7.82
2023-05-19T12:22:56.625Z,8.90
2023-05-19T12:25:02.351Z,6.15
2023-05-19T12:27:14.938Z,8.30
2023-05-19T12:29:17.609Z,7.18
2023-05-19T12:31:25.890Z,6.20
2023-05-19T12:33:28.750Z,8.15
2023-05-19T12:35:37.711Z,10.35
2023-05-19T12:37:42.622Z,7.65
2023-05-19T12:39:45.549Z,8.07
2023-05-19T12:41:48.332Z,7.13
2023-05-19T12:43:51.342Z,9.65
2023-05-19T12:45:54.243Z,9.53
2023-05-19T12:48:04.257Z,8.18
2023-05-19T12:50:09.463Z,5.88
2023-05-19T12:52:14.298Z,9.40
2023-05-19T12:54:19.896Z,6.30
2023-05-19T12:56:27.236Z,8.32
2023-05-19T12:58:54.851Z,13.02
2023-05-19T13:01:00.688Z,6.40
2023-05-19T13:03:07.884Z,6.57
2023-05-19T13:05:10.522Z,9.60
2023-05-19T13:07:13.889Z,6.60
2023-05-19T13:09:18.033Z,6.63
2023-05-19T13:11:20.665Z,11.02
2023-05-19T13:13:23.221Z,12.63
2023-05-19T13:15:30.043Z,9.43
2023-05-19T13:17:32.756Z,8.18
2023-05-19T13:19:38.207Z,11.35
2023-05-19T13:21:43.994Z,7.65
2023-05-19T13:23:46.722Z,7.75
2023-05-19T13:25:50.974Z,9.05
2023-05-19T13:27:54.725Z,8.23
2023-05-19T13:29:57.631Z,10.75
2023-05-19T13:32:01.573Z,10.43
2023-05-19T13:34:04.361Z,11.90
2023-05-19T13:36:29.833Z,8.50
2023-05-19T13:38:32.416Z,12.25
2023-05-19T13:40:35.470Z,11.77
2023-05-19T13:42:38.209Z,15.38
2023-05-19T13:44:40.847Z,6.20
2023-05-19T13:46:45.638Z,9.93
2023-05-19T13:48:51.457Z,13.00
2023-05-19T13:50:55.742Z,12.63
2023-05-19T13:53:00.877Z,5.75
2023-05-19T13:55:03.892Z,7.55
2023-05-19T13:57:06.942Z,8.95
2023-05-19T13:59:09.666Z,11.45
2023-05-19T14:01:12.333Z,7.60
2023-05-19T14:03:20.030Z,9.07
2023-05-19T14:05:22.777Z,10.02
2023-05-19T14:07:25.967Z,10.77
2023-05-19T14:09:31.201Z,9.60
2023-05-19T14:11:33.898Z,8.32
2023-05-19T14:13:56.698Z,8.65
2023-05-19T14:15:59.653Z,11.43
2023-05-19T14:18:03.596Z,10.23
2023-05-19T14:20:08.653Z,11.32
2023-05-19T14:22:11.262Z,10.40
2023-05-19T14:24:13.919Z,18.33
2023-05-19T14:26:22.642Z,19.52
2023-05-19T14:28:25.427Z,16.85
2023-05-19T14:30:28.173Z,19.30
2023-05-19T14:32:30.946Z,22.40
2023-05-19T14:34:35.469Z,25.27
2023-05-19T14:36:38.319Z,22.98
2023-05-19T14:38:40.916Z,30.30
2023-05-19T14:40:44.417Z,22.30
2023-05-19T14:42:49.626Z,27.33
2023-05-19T14:44:52.217Z,15.75
2023-05-19T14:46:54.885Z,23.00
2023-05-19T14:48:58.250Z,20.85
2023-05-19T14:51:01.344Z,18.48
2023-05-19T14:53:03.910Z,17.53
2023-05-19T14:55:07.159Z,40.85
2023-05-19T14:57:09.728Z,20.92
2023-05-19T14:59:14.946Z,23.00
2023-05-19T15:01:17.587Z,33.75
2023-05-19T15:03:23.386Z,19.38
2023-05-19T15:05:25.927Z,45.35
2023-05-19T15:07:28.605Z,20.25
2023-05-19T15:09:32.529Z,30.80
2023-05-19T15:11:38.175Z,34.00
2023-05-19T15:13:41.630Z,39.70
2023-05-19T15:15:46.965Z,41.78
2023-05-19T15:17:54.383Z,39.63
2023-05-19T15:19:57.173Z,38.53
2023-05-19T15:22:02.592Z,39.47
2023-05-19T15:24:07.183Z,18.52
2023-05-19T15:26:12.792Z,17.25
2023-05-19T15:28:17.113Z,18.60
2023-05-19T15:30:19.757Z,36.50
2023-05-19T15:32:25.076Z,12.30
2023-05-19T15:34:27.989Z,30.73
2023-05-19T15:36:31.737Z,44.72
2023-05-19T15:38:37.853Z,47.78
2023-05-19T15:40:42.184Z,42.20
2023-05-19T15:42:44.752Z,18.00
2023-05-19T15:44:47.975Z,23.55
2023-05-19T15:46:50.704Z,27.57
2023-05-19T15:48:56.330Z,18.13
2023-05-19T15:51:00.003Z,18.45
2023-05-19T15:53:02.682Z,21.88
2023-05-19T15:55:06.465Z,20.13
2023-05-19T15:57:09.145Z,53.40
2023-05-19T15:59:11.819Z,25.27
2023-05-19T16:01:15.203Z,17.92
2023-05-19T16:03:18.748Z,38.15
2023-05-19T16:05:24.358Z,19.42
2023-05-19T16:07:26.939Z,22.10
2023-05-19T16:09:32.957Z,24.85
2023-05-19T16:11:35.466Z,31.50
2023-05-19T16:13:39.331Z,27.23
2023-05-19T16:15:42.043Z,22.55
2023-05-19T16:17:44.651Z,61.30
2023-05-19T16:19:47.308Z,27.52
2023-05-19T16:21:52.589Z,28.40
2023-05-19T16:23:58.038Z,26.58
2023-05-19T16:26:03.584Z,22.05
2023-05-19T16:28:06.368Z,27.35
2023-05-19T16:30:12.001Z,31.95
2023-05-19T16:32:14.639Z,21.08
2023-05-19T16:34:17.285Z,41.33
2023-05-19T16:36:22.097Z,46.72
2023-05-19T16:38:27.502Z,44.72
2023-05-19T16:40:31.120Z,40.22
2023-05-19T16:42:33.780Z,22.23
2023-05-19T16:44:36.356Z,21.95
2023-05-19T16:46:39.157Z,51.20
2023-05-19T16:48:41.749Z,41.30
2023-05-19T16:50:48.406Z,31.45
2023-05-19T16:52:51.918Z,34.45
2023-05-19T16:54:57.019Z,36.90
2023-05-19T16:57:02.683Z,26.83
2023-05-19T16:59:05.358Z,29.52
2023-05-19T17:01:07.870Z,75.72
2023-05-19T17:03:10.648Z,53.10
2023-05-19T17:05:13.403Z,52.90
2023-05-19T17:07:17.134Z,42.45
2023-05-19T17:09:25.368Z,31.70
2023-05-19T17:11:30.585Z,32.58
2023-05-19T17:13:36.802Z,34.60
2023-05-19T17:15:43.570Z,39.13
2023-05-19T17:17:46.361Z,29.75
2023-05-19T17:19:48.938Z,36.97
2023-05-19T17:21:51.604Z,34.55
2023-05-19T17:23:54.323Z,28.73
2023-05-19T17:25:57.012Z,42.88
2023-05-19T17:28:04.748Z,29.13
2023-05-19T17:30:11.241Z,33.00
2023-05-19T17:32:13.873Z,27.23
2023-05-19T17:34:16.682Z,36.53
2023-05-19T17:36:19.271Z,28.05
2023-05-19T17:38:21.805Z,26.70
2023-05-19T17:40:24.461Z,27.30
2023-05-19T17:42:27.542Z,18.38
2023-05-19T17:44:32.692Z,13.85
2023-05-19T17:46:35.344Z,18.98
2023-05-19T17:48:38.083Z,20.70
2023-05-19T17:50:40.719Z,20.10
2023-05-19T17:52:43.887Z,25.23
2023-05-19T17:56:52.523Z,23.20
2023-05-19T17:58:57.408Z,27.48
2023-05-19T18:01:03.043Z,21.05
2023-05-19T18:03:06.685Z,22.67
2023-05-19T18:05:10.898Z,23.10
2023-05-19T18:07:16.157Z,20.85
2023-05-19T18:09:20.043Z,21.90
2023-05-19T18:11:23.461Z,19.65
2023-05-19T18:13:26.348Z,18.98
2023-05-19T18:15:28.916Z,24.17
2023-05-19T18:17:34.269Z,25.42
2023-05-19T18:19:39.164Z,22.23
2023-05-19T18:21:42.764Z,27.30
2023-05-19T18:23:45.521Z,24.17
2023-05-19T18:25:50.628Z,21.67
2023-05-19T18:27:57.098Z,28.10
2023-05-19T18:29:59.940Z,26.42
2023-05-19T18:32:02.770Z,28.98
2023-05-19T18:34:08.115Z,21.55
2023-05-19T18:36:10.688Z,23.35
2023-05-19T18:38:13.269Z,24.67
2023-05-19T18:40:15.964Z,24.77
2023-05-19T18:42:20.205Z,24.13
2023-05-19T18:44:22.839Z,24.40
2023-05-19T18:46:25.594Z,22.63
2023-05-19T18:48:28.380Z,21.58
2023-05-19T18:50:33.854Z,27.75
2023-05-19T18:52:36.551Z,26.30
2023-05-19T18:54:40.779Z,39.83
2023-05-19T18:56:44.172Z,18.67
2023-05-19T18:58:46.907Z,39.50
2023-05-19T19:00:50.491Z,23.27
2023-05-19T19:02:53.103Z,23.20
2023-05-19T19:04:55.942Z,26.58
2023-05-19T19:07:01.568Z,25.33
2023-05-19T19:09:04.252Z,20.45
2023-05-19T19:11:09.504Z,22.83
2023-05-19T19:13:12.010Z,33.70
2023-05-19T19:15:14.700Z,19.85
2023-05-19T19:17:18.222Z,22.38
2023-05-19T19:19:20.908Z,69.70
2023-05-19T19:21:26.286Z,42.35
2023-05-19T19:23:31.794Z,52.05
2023-05-19T19:25:34.485Z,61.75
2023-05-19T19:27:37.314Z,83.90
2023-05-19T19:29:39.865Z,84.20
2023-05-19T19:31:42.471Z,84.30
2023-05-19T19:33:45.283Z,119.47
2023-05-19T19:35:47.919Z,86.90
2023-05-19T19:37:51.943Z,85.65
2023-05-19T19:39:57.214Z,64.43
2023-05-19T19:41:59.981Z,61.40
2023-05-19T19:44:02.648Z,35.75
2023-05-19T19:46:07.265Z,35.95
2023-05-19T19:48:09.915Z,13.23
2023-05-19T19:50:12.949Z,10.70
2023-05-19T19:52:18.648Z,13.73
2023-05-19T19:54:21.239Z,16.88
2023-05-19T19:56:27.717Z,16.55
2023-05-19T19:58:31.215Z,9.93
2023-05-19T20:00:34.073Z,12.10
2023-05-19T20:02:45.537Z,10.45
2023-05-19T20:04:58.759Z,9.73
2023-05-19T20:07:01.342Z,14.73
2023-05-19T20:09:04.460Z,10.63
2023-05-19T20:11:07.008Z,10.88
2023-05-19T20:13:12.233Z,10.68
2023-05-19T20:15:15.461Z,12.48
2023-05-19T20:17:19.333Z,11.40
2023-05-19T20:19:22.146Z,11.48
2023-05-19T20:21:24.829Z,15.48
2023-05-19T20:23:27.539Z,16.80
2023-05-19T20:25:30.331Z,13.15
2023-05-19T20:27:33.161Z,17.65
2023-05-19T20:29:38.399Z,13.65
2023-05-19T20:31:41.419Z,11.95
2023-05-19T20:33:44.016Z,13.90
2023-05-19T20:35:46.846Z,20.83
2023-05-19T20:37:49.680Z,12.18
2023-05-19T20:39:52.340Z,12.75
2023-05-19T20:41:54.868Z,10.68
2023-05-19T20:43:57.500Z,11.60
2023-05-19T20:46:04.097Z,11.55
2023-05-19T20:48:07.094Z,10.30
2023-05-19T20:50:09.713Z,14.05
2023-05-19T20:52:12.380Z,12.50
2023-05-19T20:54:14.960Z,13.02
2023-05-19T20:56:17.558Z,13.93
2023-05-19T20:58:20.102Z,14.93
2023-05-19T21:00:23.861Z,17.93
2023-05-19T21:02:29.368Z,18.37
2023-05-19T21:04:33.140Z,14.63
2023-05-19T21:06:36.084Z,19.83
2023-05-19T21:08:38.738Z,17.65
2023-05-19T21:10:41.893Z,18.80
2023-05-19T21:12:44.568Z,23.92
2023-05-19T21:14:47.137Z,19.38
2023-05-19T21:16:50.041Z,19.45
2023-05-19T21:18:55.302Z,24.17
2023-05-19T21:20:57.851Z,15.98
2023-05-19T21:23:00.374Z,25.02
2023-05-19T21:25:02.971Z,24.73
2023-05-19T21:27:05.959Z,26.55
2023-05-19T21:29:09.462Z,24.58
2023-05-19T21:31:12.461Z,27.13
2023-05-19T21:33:15.163Z,24.58
2023-05-19T21:35:20.567Z,22.27
2023-05-19T21:37:23.189Z,20.83
2023-05-19T21:39:25.806Z,21.30
2023-05-19T21:41:28.520Z,18.17
2023-05-19T21:43:31.362Z,17.58
2023-05-19T21:45:34.026Z,16.77
2023-05-19T21:47:36.710Z,15.60
2023-05-19T21:49:40.418Z,16.67
2023-05-19T21:51:45.834Z,11.23
2023-05-19T21:53:48.312Z,11.30
2023-05-19T21:55:51.021Z,13.32
2023-05-19T21:57:53.665Z,9.10
2023-05-19T21:59:56.389Z,10.88
2023-05-19T22:01:59.880Z,11.52
2023-05-19T22:04:02.528Z,11.27
2023-05-19T22:06:06.692Z,11.70
2023-05-19T22:08:11.780Z,11.02
2023-05-19T22:10:14.528Z,8.40
2023-05-19T22:12:17.205Z,13.13
2023-05-19T22:14:19.778Z,14.45
2023-05-19T22:16:22.290Z,17.13
2023-05-19T22:18:24.950Z,10.77
2023-05-19T22:20:27.605Z,10.70
2023-05-19T22:22:30.138Z,11.43
2023-05-19T22:24:35.399Z,10.88
2023-05-19T22:26:38.091Z,11.18
2023-05-19T22:28:40.897Z,12.05
2023-05-19T22:30:44.264Z,12.07
2023-05-19T22:32:46.966Z,11.05
2023-05-19T22:34:50.209Z,9.05
2023-05-19T22:36:53.013Z,12.60
2023-05-19T22:38:55.555Z,12.57
2023-05-19T22:41:00.727Z,13.75
2023-05-19T22:43:03.283Z,13.27
2023-05-19T22:45:07.134Z,10.00
2023-05-19T22:47:13.682Z,8.13
2023-05-19T22:49:16.630Z,9.65
2023-05-19T22:51:19.316Z,12.45
2023-05-19T22:53:21.916Z,12.13
2023-05-19T22:55:24.470Z,11.65
2023-05-19T22:57:29.550Z,10.95
2023-05-19T22:59:35.602Z,10.38
2023-05-19T23:01:38.146Z,10.25
2023-05-19T23:03:41.644Z,14.82
2023-05-19T23:05:44.388Z,9.27
2023-05-19T23:07:46.856Z,11.55
2023-05-19T23:09:49.431Z,13.48
2023-05-19T23:11:51.986Z,12.27
2023-05-19T23:13:57.227Z,10.05
2023-05-19T23:15:59.777Z,11.82
2023-05-19T23:18:07.315Z,9.02
2023-05-19T23:20:11.674Z,14.80
2023-05-19T23:24:16.658Z,9.50
2023-05-19T23:26:19.259Z,11.02
2023-05-19T23:28:21.693Z,10.80
2023-05-19T23:30:28.744Z,10.18
2023-05-19T23:32:31.368Z,12.43
2023-05-19T23:34:33.999Z,11.93
2023-05-19T23:36:37.144Z,9.82
2023-05-19T23:38:39.840Z,17.30
2023-05-19T23:40:42.964Z,10.45
2023-05-19T23:42:45.608Z,9.98
2023-05-19T23:44:48.197Z,10.32
2023-05-19T23:46:53.311Z,10.20
2023-05-19T23:48:56.045Z,11.43
2023-05-19T23:50:58.839Z,9.77
2023-05-19T23:53:01.628Z,9.32
2023-05-19T23:55:04.686Z,10.93
2023-05-19T23:57:08.085Z,11.52
2023-05-19T23:59:11.419Z,16.80
